Time;durP1;ratioP1;P1;durP2;ratioP2;P2;SDS_P1;SDS_P2;PMS_P1;PMS_P2;Temp;Humidity;BMP_temperature;BMP_pressure;BME280_temperature;BME280_humidity;BME280_pressure;Samples;Min_cycle;Max_cycle;Signal;HPM_P1;HPM_P2
2023/01/19 00:01:27;;;;;;;19.40;12.67;;;;;;;;;;5050095;28;20495;-82
2023/01/19 00:03:53;;;;;;;18.07;12.57;;;;;;;;;;5051203;28;20451;-82
2023/01/19 00:06:20;;;;;;;19.67;11.87;;;;;;;;;;5049042;28;20519;-82
2023/01/19 00:08:48;;;;;;;21.23;13.00;;;;;;;;;;5053699;28;20461;-82
2023/01/19 00:11:16;;;;;;;18.90;14.00;;;;;;;;;;5063948;28;20497;-83
2023/01/19 00:13:48;;;;;;;16.40;13.10;;;;;;;;;;5073479;28;20702;-82
2023/01/19 00:16:16;;;;;;;17.17;13.20;;;;;;;;;;5072697;28;20531;-82
2023/01/19 00:18:43;;;;;;;20.50;12.20;;;;;;;;;;5070304;28;20468;-82
2023/01/19 00:21:10;;;;;;;14.30;11.47;;;;;;;;;;5072516;28;20988;-82
2023/01/19 00:23:37;;;;;;;19.07;13.63;;;;;;;;;;5071306;28;20461;-82
2023/01/19 00:26:03;;;;;;;17.07;13.20;;;;;;;;;;5071398;28;20474;-82
2023/01/19 00:28:29;;;;;;;16.87;11.93;;;;;;;;;;5072921;28;20447;-82
2023/01/19 00:30:56;;;;;;;17.47;13.40;;;;;;;;;;5071193;28;20826;-82
2023/01/19 00:33:22;;;;;;;23.13;14.30;;;;;;;;;;5073365;28;20467;-82
2023/01/19 00:35:53;;;;;;;26.53;14.27;;;;;;;;;;5073115;28;20839;-82
2023/01/19 00:38:20;;;;;;;20.17;12.90;;;;;;;;;;5072835;28;20454;-82
2023/01/19 00:40:46;;;;;;;19.20;13.40;;;;;;;;;;5070657;28;20546;-82
2023/01/19 00:43:11;;;;;;;21.73;13.77;;;;;;;;;;5073723;28;20447;-82
2023/01/19 00:45:38;;;;;;;21.97;13.37;;;;;;;;;;5072991;28;20474;-82
2023/01/19 00:48:04;;;;;;;20.80;14.20;;;;;;;;;;5072809;28;20215;-82
2023/01/19 00:50:31;;;;;;;24.67;15.70;;;;;;;;;;5072382;28;20464;-82
2023/01/19 00:52:59;;;;;;;18.37;14.17;;;;;;;;;;5072005;28;20485;-83
2023/01/19 00:55:27;;;;;;;18.23;14.07;;;;;;;;;;5072458;28;20462;-83
2023/01/19 00:57:53;;;;;;;17.87;12.97;;;;;;;;;;5071983;28;20498;-82
2023/01/19 01:00:20;;;;;;;16.83;13.13;;;;;;;;;;5073470;28;21030;-82
2023/01/19 01:02:47;;;;;;;20.47;14.17;;;;;;;;;;5072802;28;20477;-82
2023/01/19 01:05:15;;;;;;;21.13;15.80;;;;;;;;;;5072144;28;20456;-82
2023/01/19 01:07:43;;;;;;;26.07;15.50;;;;;;;;;;5071567;28;20444;-82
2023/01/19 01:10:12;;;;;;;27.33;15.13;;;;;;;;;;5072186;28;20502;-82
2023/01/19 01:12:39;;;;;;;22.20;14.60;;;;;;;;;;5070830;28;20486;-82
2023/01/19 01:15:06;;;;;;;21.20;15.20;;;;;;;;;;5071424;28;20467;-82
2023/01/19 01:17:32;;;;;;;19.20;13.33;;;;;;;;;;5072961;28;20455;-82
2023/01/19 01:20:00;;;;;;;23.20;15.47;;;;;;;;;;5072152;28;20454;-83
2023/01/19 01:22:27;;;;;;;21.93;14.83;;;;;;;;;;5071294;28;20479;-82
2023/01/19 01:24:53;;;;;;;18.47;14.30;;;;;;;;;;5071134;28;20439;-82
2023/01/19 01:27:21;;;;;;;19.20;15.57;;;;;;;;;;5070180;28;20548;-82
2023/01/19 01:29:47;;;;;;;20.00;14.77;;;;;;;;;;5071161;28;20475;-82
2023/01/19 01:32:14;;;;;;;23.40;16.67;;;;;;;;;;5069371;28;20508;-82
2023/01/19 01:34:40;;;;;;;20.40;15.87;;;;;;;;;;5072456;28;20443;-81
2023/01/19 01:37:07;;;;;;;18.80;15.07;;;;;;;;;;5071275;28;20463;-83
2023/01/19 01:39:33;;;;;;;21.90;16.63;;;;;;;;;;5069416;28;20482;-82
2023/01/19 01:41:59;;;;;;;25.87;16.67;;;;;;;;;;5071423;28;20483;-83
2023/01/19 01:44:49;;;;;;;22.90;15.73;;;;;;;;;;5071320;28;20455;-82
2023/01/19 01:47:17;;;;;;;23.43;16.37;;;;;;;;;;5068412;28;20467;-82
2023/01/19 01:49:44;;;;;;;21.47;16.67;;;;;;;;;;5070926;28;20443;-82
2023/01/19 01:52:11;;;;;;;21.43;16.10;;;;;;;;;;5070486;28;20472;-82
2023/01/19 01:54:38;;;;;;;20.33;14.60;;;;;;;;;;5071440;28;20451;-82
2023/01/19 01:57:11;;;;;;;25.60;16.60;;;;;;;;;;5076168;28;20471;-82
2023/01/19 01:59:39;;;;;;;17.43;15.50;;;;;;;;;;5074064;28;20455;-82
2023/01/19 02:04:56;;;;;;;23.20;16.70;;;;;;;;;;5076175;28;20423;-82
2023/01/19 02:15:38;;;;;;;25.47;16.93;;;;;;;;;;5075414;28;20474;-82
2023/01/19 02:18:05;;;;;;;21.70;17.50;;;;;;;;;;5073804;28;21003;-82
2023/01/19 02:20:33;;;;;;;22.73;16.10;;;;;;;;;;5073261;28;21027;-82
2023/01/19 02:23:01;;;;;;;21.33;18.27;;;;;;;;;;5073809;28;20474;-83
2023/01/19 02:25:29;;;;;;;23.77;18.23;;;;;;;;;;5072786;28;20498;-82
2023/01/19 02:27:56;;;;;;;26.20;18.97;;;;;;;;;;5072672;28;20471;-82
2023/01/19 02:30:22;;;;;;;23.00;17.80;;;;;;;;;;5076135;28;20471;-82
2023/01/19 02:32:49;;;;;;;24.00;18.60;;;;;;;;;;5073933;28;20479;-82
2023/01/19 02:35:15;;;;;;;26.90;18.53;;;;;;;;;;5073181;28;20487;-82
2023/01/19 02:37:43;;;;;;;25.67;17.97;;;;;;;;;;5074824;28;20459;-82
2023/01/19 02:40:11;;;;;;;25.10;18.60;;;;;;;;;;5073847;28;20454;-81
2023/01/19 02:42:40;;;;;;;27.90;18.33;;;;;;;;;;5073384;28;20478;-82
2023/01/19 02:45:11;;;;;;;28.07;19.33;;;;;;;;;;5072678;28;20893;-82
2023/01/19 02:47:38;;;;;;;31.23;19.13;;;;;;;;;;5074290;28;20451;-82
2023/01/19 02:50:05;;;;;;;23.87;18.90;;;;;;;;;;5074448;28;20459;-81
2023/01/19 02:52:32;;;;;;;21.53;17.97;;;;;;;;;;5072896;28;21259;-81
2023/01/19 02:55:02;;;;;;;25.83;19.60;;;;;;;;;;5074189;28;21052;-82
2023/01/19 02:57:35;;;;;;;26.47;19.60;;;;;;;;;;5073638;28;20480;-82
2023/01/19 03:00:12;;;;;;;28.37;20.13;;;;;;;;;;5072880;28;20465;-82
2023/01/19 03:02:46;;;;;;;27.30;20.00;;;;;;;;;;5072130;28;20483;-81
2023/01/19 03:05:18;;;;;;;26.77;19.67;;;;;;;;;;5073378;28;21653;-83
2023/01/19 03:07:51;;;;;;;29.30;21.03;;;;;;;;;;5074760;28;20994;-82
2023/01/19 03:10:20;;;;;;;28.60;19.93;;;;;;;;;;5074537;28;20482;-82
2023/01/19 03:12:50;;;;;;;32.27;20.10;;;;;;;;;;5073780;28;21149;-82
2023/01/19 03:15:23;;;;;;;30.30;19.33;;;;;;;;;;5073233;28;20525;-82
2023/01/19 03:17:50;;;;;;;27.13;20.40;;;;;;;;;;5073037;28;20472;-82
2023/01/19 03:20:19;;;;;;;24.97;20.03;;;;;;;;;;5073837;28;20470;-82
2023/01/19 03:22:49;;;;;;;32.77;19.90;;;;;;;;;;5072046;28;20490;-82
2023/01/19 03:25:16;;;;;;;26.20;18.77;;;;;;;;;;5074555;28;20471;-81
2023/01/19 03:27:43;;;;;;;32.43;20.97;;;;;;;;;;5070988;28;20464;-81
2023/01/19 03:30:12;;;;;;;24.10;18.10;;;;;;;;;;5073031;28;20482;-82
2023/01/19 03:32:42;;;;;;;28.97;20.80;;;;;;;;;;5074166;28;20479;-81
2023/01/19 03:35:11;;;;;;;26.40;19.00;;;;;;;;;;5071327;28;20952;-82
2023/01/19 03:37:40;;;;;;;26.70;18.83;;;;;;;;;;5070838;28;20464;-82
2023/01/19 03:40:07;;;;;;;26.33;20.50;;;;;;;;;;5073669;28;20498;-81
2023/01/19 03:42:34;;;;;;;26.97;19.90;;;;;;;;;;5071265;28;20476;-81
2023/01/19 03:45:01;;;;;;;27.03;18.87;;;;;;;;;;5073323;28;20490;-81
2023/01/19 03:47:28;;;;;;;27.57;20.10;;;;;;;;;;5073205;28;20458;-81
2023/01/19 03:49:56;;;;;;;26.77;18.83;;;;;;;;;;5073117;28;20448;-81
2023/01/19 03:52:32;;;;;;;27.63;19.93;;;;;;;;;;5070612;28;20479;-81
2023/01/19 03:54:58;;;;;;;21.27;18.13;;;;;;;;;;5072474;28;20481;-81
2023/01/19 03:57:24;;;;;;;23.97;17.57;;;;;;;;;;5072728;28;20451;-81
2023/01/19 03:59:52;;;;;;;24.87;19.40;;;;;;;;;;5073468;28;20498;-81
2023/01/19 04:02:18;;;;;;;26.90;19.13;;;;;;;;;;5072085;28;20476;-81
2023/01/19 04:04:45;;;;;;;26.47;19.20;;;;;;;;;;5072239;28;20459;-81
2023/01/19 04:07:12;;;;;;;22.90;18.50;;;;;;;;;;5070971;28;20479;-81
2023/01/19 04:09:39;;;;;;;23.60;18.97;;;;;;;;;;5072349;28;20446;-81
2023/01/19 04:12:05;;;;;;;25.57;18.17;;;;;;;;;;5072614;28;20474;-81
2023/01/19 04:14:32;;;;;;;28.50;19.00;;;;;;;;;;5073625;28;20439;-81
2023/01/19 04:16:59;;;;;;;27.57;18.90;;;;;;;;;;5072688;28;20481;-81
2023/01/19 04:19:26;;;;;;;24.80;19.90;;;;;;;;;;5071199;28;20467;-81
2023/01/19 04:21:52;;;;;;;22.63;18.27;;;;;;;;;;5071315;28;20467;-81
2023/01/19 04:24:20;;;;;;;28.67;18.70;;;;;;;;;;5074190;28;20466;-81
2023/01/19 04:26:47;;;;;;;23.37;18.30;;;;;;;;;;5069108;28;20476;-81
2023/01/19 04:29:13;;;;;;;28.57;20.10;;;;;;;;;;5073048;28;20462;-81
2023/01/19 04:31:40;;;;;;;25.70;19.17;;;;;;;;;;5071970;28;20471;-81
2023/01/19 04:34:06;;;;;;;27.53;18.60;;;;;;;;;;5073042;28;20459;-81
2023/01/19 04:36:33;;;;;;;26.63;19.33;;;;;;;;;;5069640;28;20483;-81
2023/01/19 04:39:00;;;;;;;28.00;19.90;;;;;;;;;;5071182;28;20470;-81
2023/01/19 04:41:27;;;;;;;20.97;18.30;;;;;;;;;;5071413;28;20501;-82
2023/01/19 04:43:54;;;;;;;26.30;19.37;;;;;;;;;;5072107;28;20456;-81
2023/01/19 04:46:20;;;;;;;24.10;17.10;;;;;;;;;;5070744;28;21043;-82
2023/01/19 04:48:46;;;;;;;23.13;17.60;;;;;;;;;;5071684;28;20459;-81
2023/01/19 04:51:13;;;;;;;22.23;18.20;;;;;;;;;;5071480;28;20470;-81
2023/01/19 04:53:39;;;;;;;25.07;18.87;;;;;;;;;;5070355;28;20443;-82
2023/01/19 04:56:05;;;;;;;28.07;18.70;;;;;;;;;;5071132;28;20482;-81
2023/01/19 04:58:33;;;;;;;24.93;16.40;;;;;;;;;;5073221;28;20467;-81
2023/01/19 05:00:59;;;;;;;23.80;17.97;;;;;;;;;;5071519;28;20558;-81
2023/01/19 05:03:26;;;;;;;26.10;17.87;;;;;;;;;;5069598;28;20927;-82
2023/01/19 05:05:52;;;;;;;23.20;18.13;;;;;;;;;;5069389;28;20467;-81
2023/01/19 05:08:18;;;;;;;27.93;20.03;;;;;;;;;;5073200;28;20461;-81
2023/01/19 05:10:44;;;;;;;22.23;17.40;;;;;;;;;;5069907;28;20484;-81
2023/01/19 05:13:11;;;;;;;27.27;19.17;;;;;;;;;;5071833;28;20455;-81
2023/01/19 05:15:39;;;;;;;28.03;21.53;;;;;;;;;;5071630;28;20502;-81
2023/01/19 05:18:06;;;;;;;28.83;20.07;;;;;;;;;;5070154;28;20469;-81
2023/01/19 05:20:32;;;;;;;27.83;20.07;;;;;;;;;;5067894;28;20476;-81
2023/01/19 05:22:58;;;;;;;30.93;21.00;;;;;;;;;;5072416;28;20443;-81
2023/01/19 05:25:25;;;;;;;27.50;21.13;;;;;;;;;;5072033;28;20475;-83
2023/01/19 05:27:51;;;;;;;34.83;22.00;;;;;;;;;;5072998;28;20483;-81
2023/01/19 05:30:19;;;;;;;27.67;20.87;;;;;;;;;;5073544;28;21131;-81
2023/01/19 05:32:48;;;;;;;30.57;20.40;;;;;;;;;;5073467;28;20486;-81
2023/01/19 05:35:15;;;;;;;29.13;20.70;;;;;;;;;;5075346;28;20455;-81
2023/01/19 05:37:41;;;;;;;27.60;19.67;;;;;;;;;;5072879;28;20454;-81
2023/01/19 05:40:08;;;;;;;33.50;23.30;;;;;;;;;;5073105;28;20459;-81
2023/01/19 05:42:35;;;;;;;31.80;22.97;;;;;;;;;;5073775;28;20483;-81
2023/01/19 05:45:02;;;;;;;30.30;21.77;;;;;;;;;;5074098;28;20477;-82
2023/01/19 05:47:29;;;;;;;28.20;19.73;;;;;;;;;;5075236;28;20478;-82
2023/01/19 05:49:57;;;;;;;38.10;21.90;;;;;;;;;;5075492;28;20482;-81
2023/01/19 05:52:24;;;;;;;33.60;23.60;;;;;;;;;;5073079;28;20490;-81
2023/01/19 05:54:51;;;;;;;34.87;24.20;;;;;;;;;;5073470;28;20497;-81
2023/01/19 05:57:17;;;;;;;38.47;23.30;;;;;;;;;;5071733;28;20960;-81
2023/01/19 05:59:44;;;;;;;33.50;22.80;;;;;;;;;;5073545;28;20455;-82
2023/01/19 06:02:10;;;;;;;31.50;22.10;;;;;;;;;;5074124;28;21012;-81
2023/01/19 06:04:37;;;;;;;35.07;23.27;;;;;;;;;;5074125;28;20461;-81
2023/01/19 06:07:05;;;;;;;37.30;24.27;;;;;;;;;;5073958;28;20475;-81
2023/01/19 06:09:31;;;;;;;39.20;23.13;;;;;;;;;;5074258;28;21004;-81
2023/01/19 06:11:58;;;;;;;36.77;23.47;;;;;;;;;;5071821;28;20853;-81
2023/01/19 06:14:25;;;;;;;37.90;23.90;;;;;;;;;;5074309;28;20479;-84
2023/01/19 06:16:51;;;;;;;39.73;23.57;;;;;;;;;;5074196;28;20471;-83
2023/01/19 06:19:18;;;;;;;38.70;24.27;;;;;;;;;;5074874;28;20447;-83
2023/01/19 06:21:48;;;;;;;31.80;22.70;;;;;;;;;;5070305;28;20474;-84
2023/01/19 06:24:16;;;;;;;35.13;23.43;;;;;;;;;;5075297;28;20459;-83
2023/01/19 06:26:42;;;;;;;32.83;23.17;;;;;;;;;;5071565;28;20475;-83
2023/01/19 06:29:10;;;;;;;36.23;22.17;;;;;;;;;;5076008;28;20460;-82
2023/01/19 06:31:36;;;;;;;32.93;22.30;;;;;;;;;;5069898;28;20847;-83
2023/01/19 06:34:03;;;;;;;33.93;23.03;;;;;;;;;;5073345;28;20969;-83
2023/01/19 06:36:29;;;;;;;34.87;22.00;;;;;;;;;;5074339;28;20495;-83
2023/01/19 06:38:55;;;;;;;38.37;24.30;;;;;;;;;;5073822;28;20538;-83
2023/01/19 06:41:25;;;;;;;35.70;22.40;;;;;;;;;;5067692;28;20478;-83
2023/01/19 06:43:51;;;;;;;33.70;22.30;;;;;;;;;;5073447;28;20470;-83
2023/01/19 06:46:18;;;;;;;37.63;22.73;;;;;;;;;;5072890;28;20466;-83
2023/01/19 06:48:44;;;;;;;39.10;23.90;;;;;;;;;;5072552;28;20467;-83
2023/01/19 06:51:10;;;;;;;41.30;23.23;;;;;;;;;;5075399;28;21028;-83
2023/01/19 06:53:37;;;;;;;39.20;22.93;;;;;;;;;;5075204;28;20458;-83
2023/01/19 06:56:03;;;;;;;35.20;22.53;;;;;;;;;;5074067;28;21631;-84
2023/01/19 06:58:33;;;;;;;34.50;22.47;;;;;;;;;;5073035;28;20468;-83
2023/01/19 07:01:00;;;;;;;35.10;21.17;;;;;;;;;;5074642;28;20472;-83
2023/01/19 07:03:27;;;;;;;38.17;24.23;;;;;;;;;;5072648;28;20454;-83
2023/01/19 07:05:53;;;;;;;35.13;23.77;;;;;;;;;;5072213;28;20471;-84
2023/01/19 07:08:20;;;;;;;37.50;22.97;;;;;;;;;;5073256;28;20851;-83
2023/01/19 07:10:46;;;;;;;33.30;23.17;;;;;;;;;;5073546;28;20485;-83
2023/01/19 07:13:12;;;;;;;32.60;23.10;;;;;;;;;;5075246;28;20483;-83
2023/01/19 07:15:40;;;;;;;37.93;25.43;;;;;;;;;;5073865;28;20474;-83
2023/01/19 07:18:08;;;;;;;37.10;25.17;;;;;;;;;;5056667;28;20498;-82
2023/01/19 07:20:36;;;;;;;31.57;21.30;;;;;;;;;;5072712;28;21359;-83
2023/01/19 07:23:03;;;;;;;34.30;22.20;;;;;;;;;;5073142;28;20440;-82
2023/01/19 07:25:30;;;;;;;34.33;21.63;;;;;;;;;;5071874;28;20471;-83
2023/01/19 07:27:56;;;;;;;31.43;21.87;;;;;;;;;;5073618;28;20999;-83
2023/01/19 07:30:23;;;;;;;31.37;22.70;;;;;;;;;;5074162;28;20477;-83
2023/01/19 07:32:50;;;;;;;30.53;20.73;;;;;;;;;;5070631;28;20483;-83
2023/01/19 07:35:17;;;;;;;32.37;21.57;;;;;;;;;;5071222;28;20471;-83
2023/01/19 07:37:43;;;;;;;35.80;22.60;;;;;;;;;;5071225;28;20462;-83
2023/01/19 07:40:10;;;;;;;29.50;19.67;;;;;;;;;;5074922;28;20485;-82
2023/01/19 07:42:36;;;;;;;30.10;20.90;;;;;;;;;;5072751;28;20475;-82
2023/01/19 07:45:03;;;;;;;33.27;20.47;;;;;;;;;;5072094;28;20466;-83
2023/01/19 07:47:30;;;;;;;32.50;22.73;;;;;;;;;;5072924;28;20482;-83
2023/01/19 07:49:57;;;;;;;36.90;22.47;;;;;;;;;;5072326;28;20475;-82
2023/01/19 07:52:24;;;;;;;30.87;20.80;;;;;;;;;;5070580;28;20485;-83
2023/01/19 07:54:50;;;;;;;29.47;21.83;;;;;;;;;;5070069;28;20520;-83
2023/01/19 07:57:16;;;;;;;31.60;21.63;;;;;;;;;;5072690;28;20458;-83
2023/01/19 07:59:43;;;;;;;35.23;21.93;;;;;;;;;;5073706;28;20844;-83
2023/01/19 08:02:10;;;;;;;33.30;23.03;;;;;;;;;;5073226;28;21110;-83
2023/01/19 08:04:36;;;;;;;33.40;22.97;;;;;;;;;;5074833;28;20892;-83
2023/01/19 08:07:04;;;;;;;33.90;23.10;;;;;;;;;;5073190;28;20440;-83
2023/01/19 08:09:32;;;;;;;35.93;22.80;;;;;;;;;;5071016;28;20468;-83
2023/01/19 08:11:58;;;;;;;33.87;21.90;;;;;;;;;;5072589;28;20530;-83
2023/01/19 08:14:24;;;;;;;32.87;21.13;;;;;;;;;;5071073;28;20999;-83
2023/01/19 08:16:51;;;;;;;31.83;22.97;;;;;;;;;;5071304;28;20967;-83
2023/01/19 08:19:18;;;;;;;33.70;22.00;;;;;;;;;;5072602;28;20481;-84
2023/01/19 08:21:45;;;;;;;32.73;21.73;;;;;;;;;;5072938;28;20518;-84
2023/01/19 08:24:18;;;;;;;31.83;22.40;;;;;;;;;;5071774;28;20467;-83
2023/01/19 08:26:44;;;;;;;36.43;20.90;;;;;;;;;;5070705;28;20839;-84
2023/01/19 08:29:10;;;;;;;33.50;22.30;;;;;;;;;;5071252;28;20471;-83
2023/01/19 08:31:38;;;;;;;33.63;22.30;;;;;;;;;;5072135;28;20466;-83
2023/01/19 08:34:04;;;;;;;33.57;23.10;;;;;;;;;;5071891;28;20493;-83
2023/01/19 08:36:31;;;;;;;31.70;22.70;;;;;;;;;;5072533;28;20462;-83
2023/01/19 08:38:57;;;;;;;31.30;22.97;;;;;;;;;;5069417;28;20466;-83
2023/01/19 08:41:25;;;;;;;34.47;22.27;;;;;;;;;;5072558;28;20488;-82
2023/01/19 08:43:51;;;;;;;36.43;24.97;;;;;;;;;;5069082;28;20865;-82
2023/01/19 08:46:20;;;;;;;35.60;23.57;;;;;;;;;;5072350;28;20454;-82
2023/01/19 08:48:48;;;;;;;32.63;22.50;;;;;;;;;;5072163;28;20467;-83
2023/01/19 08:51:15;;;;;;;34.10;22.37;;;;;;;;;;5071366;28;20552;-83
2023/01/19 08:53:41;;;;;;;35.20;21.53;;;;;;;;;;5068968;28;20467;-83
2023/01/19 08:56:11;;;;;;;34.57;22.60;;;;;;;;;;5073130;28;20459;-83
2023/01/19 08:58:39;;;;;;;33.90;23.30;;;;;;;;;;5068704;28;20469;-83
2023/01/19 09:01:05;;;;;;;32.50;22.30;;;;;;;;;;5070582;28;20471;-82
2023/01/19 09:03:32;;;;;;;36.80;22.37;;;;;;;;;;5072578;28;20450;-85
2023/01/19 09:05:58;;;;;;;32.10;21.60;;;;;;;;;;5075224;28;20459;-83
2023/01/19 09:08:24;;;;;;;37.00;22.97;;;;;;;;;;5075441;28;20819;-82
2023/01/19 09:10:51;;;;;;;33.90;21.60;;;;;;;;;;5076751;28;20462;-83
2023/01/19 09:13:18;;;;;;;33.97;21.83;;;;;;;;;;5071898;28;20479;-83
2023/01/19 09:15:46;;;;;;;36.20;22.87;;;;;;;;;;5072233;28;20459;-83
2023/01/19 09:18:13;;;;;;;29.23;20.40;;;;;;;;;;5074155;28;20470;-83
2023/01/19 09:20:41;;;;;;;31.50;20.20;;;;;;;;;;5075831;28;20450;-83
2023/01/19 09:23:09;;;;;;;31.53;20.53;;;;;;;;;;5075694;28;21024;-83
2023/01/19 09:25:35;;;;;;;29.40;20.50;;;;;;;;;;5072958;28;20551;-84
2023/01/19 09:28:02;;;;;;;38.63;20.10;;;;;;;;;;5075016;28;20448;-83
2023/01/19 09:30:28;;;;;;;30.33;19.33;;;;;;;;;;5075986;28;20485;-83
2023/01/19 09:32:56;;;;;;;29.20;18.37;;;;;;;;;;5072127;28;20484;-82
2023/01/19 09:35:22;;;;;;;33.30;17.90;;;;;;;;;;5073937;28;20479;-82
2023/01/19 09:37:49;;;;;;;37.27;19.30;;;;;;;;;;5073414;28;20435;-84
2023/01/19 09:40:15;;;;;;;31.37;19.40;;;;;;;;;;5076207;28;20478;-83
2023/01/19 09:42:43;;;;;;;29.53;19.47;;;;;;;;;;5075665;28;20459;-82
2023/01/19 09:45:14;;;;;;;28.23;17.27;;;;;;;;;;5074135;28;20463;-83
2023/01/19 09:47:41;;;;;;;29.10;19.17;;;;;;;;;;5075984;28;20823;-84
2023/01/19 09:50:13;;;;;;;28.20;17.10;;;;;;;;;;5074420;28;20483;-83
2023/01/19 09:52:41;;;;;;;29.63;17.40;;;;;;;;;;5075454;28;20494;-83
2023/01/19 09:55:16;;;;;;;31.13;17.93;;;;;;;;;;5076097;28;20459;-83
2023/01/19 09:57:43;;;;;;;24.43;17.37;;;;;;;;;;5075264;28;20442;-84
2023/01/19 10:00:13;;;;;;;21.50;16.50;;;;;;;;;;5074201;28;20464;-83
2023/01/19 10:02:42;;;;;;;24.50;16.07;;;;;;;;;;5075861;28;20879;-83
2023/01/19 10:05:17;;;;;;;27.93;15.43;;;;;;;;;;5074748;28;20478;-83
2023/01/19 10:07:52;;;;;;;24.97;15.63;;;;;;;;;;5072228;28;20459;-83
2023/01/19 10:10:20;;;;;;;24.50;16.97;;;;;;;;;;5075356;28;20565;-83
2023/01/19 10:12:51;;;;;;;20.30;14.70;;;;;;;;;;5076285;28;20491;-83
2023/01/19 10:15:21;;;;;;;22.20;15.17;;;;;;;;;;5072600;28;20471;-83
2023/01/19 10:17:52;;;;;;;23.57;16.77;;;;;;;;;;5073583;28;20451;-83
2023/01/19 10:20:26;;;;;;;23.80;14.93;;;;;;;;;;5073789;28;20478;-83
2023/01/19 10:22:52;;;;;;;22.23;14.13;;;;;;;;;;5073097;28;20487;-82
2023/01/19 10:25:22;;;;;;;32.77;16.00;;;;;;;;;;5072725;28;20474;-82
2023/01/19 10:27:48;;;;;;;23.47;14.03;;;;;;;;;;5072852;28;20451;-83
2023/01/19 10:30:19;;;;;;;24.50;12.67;;;;;;;;;;5071945;28;20478;-83
2023/01/19 10:32:46;;;;;;;22.67;14.93;;;;;;;;;;5074992;28;20565;-83
2023/01/19 10:35:20;;;;;;;28.40;15.33;;;;;;;;;;5073357;28;21100;-83
2023/01/19 10:37:48;;;;;;;19.40;12.40;;;;;;;;;;5074091;28;20452;-83
2023/01/19 10:40:19;;;;;;;18.83;12.23;;;;;;;;;;5073425;28;20468;-82
2023/01/19 10:42:46;;;;;;;24.77;11.23;;;;;;;;;;5073733;28;20478;-82
2023/01/19 10:45:14;;;;;;;17.10;11.43;;;;;;;;;;5073738;28;20459;-83
2023/01/19 10:47:42;;;;;;;15.13;9.87;;;;;;;;;;5073233;28;20514;-83
2023/01/19 10:50:22;;;;;;;20.57;10.87;;;;;;;;;;5071971;28;20859;-82
2023/01/19 10:52:52;;;;;;;20.00;10.00;;;;;;;;;;5072420;28;20489;-83
2023/01/19 10:55:24;;;;;;;15.93;9.37;;;;;;;;;;5074596;28;20479;-83
2023/01/19 10:57:52;;;;;;;10.57;8.60;;;;;;;;;;5073944;28;20447;-82
2023/01/19 11:00:29;;;;;;;17.80;9.40;;;;;;;;;;5072771;28;20880;-83
2023/01/19 11:02:55;;;;;;;17.93;7.80;;;;;;;;;;5074968;28;20475;-82
2023/01/19 11:05:23;;;;;;;16.37;7.60;;;;;;;;;;5073393;28;20470;-83
2023/01/19 11:07:50;;;;;;;9.20;7.40;;;;;;;;;;5072625;28;20442;-83
2023/01/19 11:10:22;;;;;;;12.30;6.53;;;;;;;;;;5072266;28;21062;-83
2023/01/19 11:12:55;;;;;;;12.73;6.90;;;;;;;;;;5071836;28;20486;-83
2023/01/19 11:15:23;;;;;;;14.43;6.77;;;;;;;;;;5073631;28;20815;-83
2023/01/19 11:17:49;;;;;;;10.63;6.00;;;;;;;;;;5074354;28;20455;-83
2023/01/19 11:20:20;;;;;;;10.50;5.87;;;;;;;;;;5072395;28;21105;-82
2023/01/19 11:22:46;;;;;;;8.90;5.30;;;;;;;;;;5071129;28;20483;-82
2023/01/19 11:25:21;;;;;;;11.20;5.60;;;;;;;;;;5073515;28;20948;-83
2023/01/19 11:27:50;;;;;;;5.90;3.23;;;;;;;;;;5071939;28;20439;-82
2023/01/19 11:30:18;;;;;;;5.67;3.70;;;;;;;;;;5073837;28;20499;-82
2023/01/19 11:32:45;;;;;;;9.23;3.43;;;;;;;;;;5073130;28;20479;-83
2023/01/19 11:35:31;;;;;;;6.00;2.63;;;;;;;;;;5070686;28;20480;-82
2023/01/19 11:38:05;;;;;;;10.13;3.13;;;;;;;;;;5073229;28;20448;-83
2023/01/19 11:40:33;;;;;;;4.20;1.80;;;;;;;;;;5072743;28;20483;-83
2023/01/19 11:43:00;;;;;;;6.90;2.03;;;;;;;;;;5072526;28;20442;-83
2023/01/19 11:45:27;;;;;;;5.97;3.07;;;;;;;;;;5072735;28;20459;-83
2023/01/19 11:47:53;;;;;;;12.37;2.60;;;;;;;;;;5072067;28;20494;-83
2023/01/19 11:50:22;;;;;;;6.43;2.57;;;;;;;;;;5072377;28;21058;-82
2023/01/19 11:52:52;;;;;;;12.23;3.33;;;;;;;;;;5070382;28;20464;-83
2023/01/19 11:55:22;;;;;;;5.67;2.50;;;;;;;;;;5070802;28;20477;-83
2023/01/19 11:57:51;;;;;;;38.50;3.60;;;;;;;;;;5071041;28;20452;-82
2023/01/19 12:00:22;;;;;;;9.47;2.63;;;;;;;;;;5068580;28;20474;-83
2023/01/19 12:02:50;;;;;;;2.70;2.50;;;;;;;;;;5073526;28;20483;-83
2023/01/19 12:05:19;;;;;;;6.20;3.07;;;;;;;;;;5072065;28;20470;-82
2023/01/19 12:07:47;;;;;;;7.50;2.53;;;;;;;;;;5068455;28;20444;-83
2023/01/19 12:10:20;;;;;;;12.30;3.37;;;;;;;;;;5072745;28;20467;-82
2023/01/19 12:12:48;;;;;;;10.73;3.07;;;;;;;;;;5072163;28;20472;-82
2023/01/19 12:15:21;;;;;;;8.57;2.90;;;;;;;;;;5069985;28;20509;-83
2023/01/19 12:17:48;;;;;;;5.40;2.20;;;;;;;;;;5072364;28;21040;-82
2023/01/19 12:20:19;;;;;;;7.40;2.93;;;;;;;;;;5071155;28;20468;-82
2023/01/19 12:22:49;;;;;;;8.03;2.90;;;;;;;;;;5071063;28;20464;-83
2023/01/19 12:25:19;;;;;;;10.67;2.63;;;;;;;;;;5068967;28;20471;-82
2023/01/19 12:27:47;;;;;;;10.43;3.30;;;;;;;;;;5071698;28;20825;-83
2023/01/19 12:30:19;;;;;;;7.50;2.53;;;;;;;;;;5071415;28;20474;-83
2023/01/19 12:32:45;;;;;;;10.43;3.03;;;;;;;;;;5070234;28;20494;-83
2023/01/19 12:35:26;;;;;;;6.60;3.13;;;;;;;;;;5070515;28;20482;-83
2023/01/19 12:37:53;;;;;;;9.53;2.90;;;;;;;;;;5070924;28;20451;-83
2023/01/19 12:40:23;;;;;;;9.87;2.87;;;;;;;;;;5073125;28;20479;-83
2023/01/19 12:42:54;;;;;;;8.70;2.40;;;;;;;;;;5071227;28;20463;-83
2023/01/19 12:45:24;;;;;;;7.07;2.90;;;;;;;;;;5069224;28;20482;-82
2023/01/19 12:47:51;;;;;;;9.10;3.10;;;;;;;;;;5069807;28;20462;-83
2023/01/19 12:50:22;;;;;;;11.87;2.90;;;;;;;;;;5068949;28;20494;-83
2023/01/19 12:52:50;;;;;;;15.53;3.17;;;;;;;;;;5070243;28;20484;-83
2023/01/19 12:55:19;;;;;;;8.70;2.27;;;;;;;;;;5070639;28;20485;-82
2023/01/19 12:57:55;;;;;;;15.30;2.13;;;;;;;;;;5070897;28;20443;-83
2023/01/19 13:00:31;;;;;;;8.30;2.40;;;;;;;;;;5068266;28;20839;-83
2023/01/19 13:02:58;;;;;;;11.50;3.40;;;;;;;;;;5071383;28;20499;-83
2023/01/19 13:05:46;;;;;;;14.73;4.50;;;;;;;;;;5068775;28;20589;-82
2023/01/19 13:08:21;;;;;;;14.87;3.23;;;;;;;;;;5070366;28;20458;-83
2023/01/19 13:10:56;;;;;;;9.43;4.17;;;;;;;;;;5071942;28;20843;-82
2023/01/19 13:13:23;;;;;;;18.00;4.57;;;;;;;;;;5069484;28;20451;-83
2023/01/19 13:15:49;;;;;;;10.10;3.43;;;;;;;;;;5069025;28;20455;-83
2023/01/19 13:18:17;;;;;;;10.00;2.40;;;;;;;;;;5068578;28;20432;-83
2023/01/19 13:20:44;;;;;;;9.90;2.60;;;;;;;;;;5068126;28;20463;-83
2023/01/19 13:23:16;;;;;;;8.70;3.93;;;;;;;;;;5068038;28;20444;-83
2023/01/19 13:25:47;;;;;;;5.57;2.40;;;;;;;;;;5071539;28;20550;-82
2023/01/19 13:28:14;;;;;;;6.40;2.30;;;;;;;;;;5071744;28;20454;-82
2023/01/19 13:30:48;;;;;;;5.03;1.80;;;;;;;;;;5068925;28;20479;-82
2023/01/19 13:33:18;;;;;;;5.00;2.43;;;;;;;;;;5069831;28;20438;-82
2023/01/19 13:35:49;;;;;;;11.90;1.77;;;;;;;;;;5070596;28;20854;-82
2023/01/19 13:38:16;;;;;;;7.90;3.00;;;;;;;;;;5070037;28;20448;-82
2023/01/19 13:40:43;;;;;;;6.70;2.10;;;;;;;;;;5071900;28;20867;-82
2023/01/19 13:43:15;;;;;;;4.90;2.20;;;;;;;;;;5071290;28;20451;-82
2023/01/19 13:45:45;;;;;;;8.03;2.07;;;;;;;;;;5068999;28;20478;-82
2023/01/19 13:48:15;;;;;;;11.77;3.53;;;;;;;;;;5068142;28;20467;-82
2023/01/19 13:50:44;;;;;;;11.67;4.00;;;;;;;;;;5070819;28;20471;-82
2023/01/19 13:53:16;;;;;;;10.50;2.80;;;;;;;;;;5076149;28;20456;-82
2023/01/19 13:55:43;;;;;;;11.70;3.87;;;;;;;;;;5074616;28;20481;-82
2023/01/19 13:58:19;;;;;;;12.13;2.87;;;;;;;;;;5074414;28;20453;-83
2023/01/19 14:00:46;;;;;;;13.87;4.07;;;;;;;;;;5074382;28;20837;-82
2023/01/19 14:03:16;;;;;;;6.10;2.40;;;;;;;;;;5074794;28;20446;-82
2023/01/19 14:05:43;;;;;;;10.37;4.13;;;;;;;;;;5072234;28;20454;-83
2023/01/19 14:08:12;;;;;;;7.00;2.77;;;;;;;;;;5075964;28;20452;-82
2023/01/19 14:10:39;;;;;;;8.07;2.23;;;;;;;;;;5071909;28;20862;-83
2023/01/19 14:13:06;;;;;;;11.33;2.90;;;;;;;;;;5075072;28;20469;-82
2023/01/19 14:15:34;;;;;;;12.27;2.60;;;;;;;;;;5073321;28;20494;-82
2023/01/19 14:18:07;;;;;;;7.20;3.00;;;;;;;;;;5072673;28;20552;-82
2023/01/19 14:20:35;;;;;;;6.03;2.47;;;;;;;;;;5071740;28;20466;-82
2023/01/19 14:23:02;;;;;;;8.33;2.23;;;;;;;;;;5072752;28;20463;-82
2023/01/19 14:25:29;;;;;;;5.63;2.10;;;;;;;;;;5072265;28;20852;-82
2023/01/19 14:28:14;;;;;;;5.03;1.90;;;;;;;;;;5071872;28;20443;-82
2023/01/19 14:30:52;;;;;;;7.40;1.60;;;;;;;;;;5071895;28;20448;-82
2023/01/19 14:33:40;;;;;;;3.40;1.57;;;;;;;;;;5072950;28;20488;-82
2023/01/19 14:36:10;;;;;;;5.67;1.67;;;;;;;;;;5074905;28;20451;-82
2023/01/19 14:38:43;;;;;;;11.50;1.50;;;;;;;;;;5071060;28;20835;-83